Prudhoe Bay, AK

1:29 PM AKDT on September 03, 2015 (GMT -0800)
Deadhorse | | Change Station
CLOSE
Current Station
Airport
Location: Deadhorse,
Elevation: 59 ft
Nearby Weather Stations

Elev 59 ft 70.19 °N, 148.47 °W | Updated 36 minutes ago

Overcast
Overcast
35 °F
Feels Like 23 °F
N
23
Wind Variable Wind from East
Gusts 29 mph

Today
High -- | Low -- °F
--% Chance of Precip.
Yesterday
High -- | Low -- °F
Precip. -- in
6:16 AM 9:27 PM
Waning Gibbous, 66% visible
Pressure 30.19 in
Visibility 5.0 miles
Clouds Overcast 200 ft
Windchill 23 °F
Dew Point 34 °F
Humidity 96%
Rainfall 0.00 in
Snow Depth Not available.
UV 1 out of 12
Pollen Not available.
Air Quality Not available.
Flu Activity Not available.
METAR PASC 032053Z 08020G25KT 5SM BR OVC002 02/01 A3019 RMK AO2 PK WND 08026/2011 SLP224 T00170011 58004
Pressure 30.19 in
Visibility 5.0 miles
Clouds Overcast 200 ft
Windchill 23 °F
Dew Point 34 °F
Humidity 96%
Rainfall 0.00 in
Snow Depth Not available.
UV 1 out of 12
Pollen Not available.
Air Quality Not available.
Flu Activity Not available.
METAR PASC 032053Z 08020G25KT 5SM BR OVC002 02/01 A3019 RMK AO2 PK WND 08026/2011 SLP224 T00170011 58004

10-Day Weather Forecast

×

Almanac

Astronomy

Sep. 03, 2015 Rise Set
Actual Time
Civil Twilight
Nautical Twilight
Astronomical Twilight
Moon
Length of Visible Light
Length of Day
Tomorrow will be .
, % of the Moon is Illuminated

Today's Extremes

State Highs State Lows

Community

WunderPhotos

Upload Photos

1,852,038 photos uploaded!

WunderBlogs® & News

Nearby

Air Quality

  Air Quality AQ Index Pollutant
Not available.

Snow Depth

Station Depth Elevation

Earthquake Activity

City Distance Mag. Time & Date
Minimum magnitude displayed is 2.5.

Coastal Water Temperatures

Place Temperature

Stations

Nearby Weather Stations

Station Location Temp. Windchill Dew Point Humidity Wind Precip. Elev Updated Type